Strona główna
METAR-TAF:

METAR-TAF

Lotnisko :

Santa Cruz, Rio de Janeiro, Brazylia

Szerokość geograficzna: 22-56S, Długość geograficzna: 043-43W, wysokość: 3 m

Aktualna obserwacja pogody

Raport powstał 1 godzina i 10 minut temu, godzina 07:00 UTC
Cisza
Temperatura 22°C
Wilgotność 94%
Ciśnienie 1011 hPa
Widzialność: 8000 m

METAR: SBSC 070700Z 00000KT 8000 NSC 22/21 Q1011

czas: 05:10 (08:10 UTC)

Prognoza

Raport powstał 5 godziny i 10 minut temu, godzina 03:00 UTC
Prognoza ważna od 07 godzina 06 UTC do 07 godzina 18 UTC
Wiatr 6 kt od północ
Widzialność 10 km lub więcej
Rozproszone chmury na wysokości 2000 ft
Stopniowe zmiany
od 07 godzina 13 UTC do 07 godzina 15 UTC
Wiatr 9 kt od południe

TAF: SBSC 070300Z 0706/0718 35006KT 9999 SCT020 TN21/0709Z TX27/0718Z BECMG 0713/0715 18009KT RMK PEI

Obserwacja i prognoza pogody dla ponad 4000 lotnisk (raport METAR i TAF).

Dostępne stacje oznaczono żółtymi i czerwonymi punktami na mapie.

Najedź kursorem aby zobaczyć nazwę stacji.

Kliknij aby zobaczyć obserwacje i prognozy pogody.

Aby zmienić mapę: kliknij na zielony przycisk z czarnym krzyżykiem, aby powiększyć; na zielony przycisk z myślnikiem, aby pomniejszyć; na zielone strzałki, aby przejść do map sąsiednich.


METAR-TAF: